sensor_id;sensor_type;location;lat;lon;timestamp;P1;durP1;ratioP1;P2;durP2;ratioP2
60488;SDS011;46331;49.252;8.904;2023-06-14T00:00:34;6.83;;;3.43;;
60488;SDS011;46331;49.252;8.904;2023-06-14T00:01:15;7.73;;;3.00;;
60488;SDS011;46331;49.252;8.904;2023-06-14T00:01:55;7.68;;;3.60;;
60488;SDS011;46331;49.252;8.904;2023-06-14T00:02:36;8.20;;;3.23;;
60488;SDS011;46331;49.252;8.904;2023-06-14T00:03:16;6.90;;;3.53;;
60488;SDS011;46331;49.252;8.904;2023-06-14T00:03:57;7.13;;;3.47;;
60488;SDS011;46331;49.252;8.904;2023-06-14T00:04:39;6.70;;;3.40;;
60488;SDS011;46331;49.252;8.904;2023-06-14T00:05:21;6.07;;;3.17;;
60488;SDS011;46331;49.252;8.904;2023-06-14T00:06:03;7.68;;;3.30;;
60488;SDS011;46331;49.252;8.904;2023-06-14T00:06:44;6.47;;;3.10;;
60488;SDS011;46331;49.252;8.904;2023-06-14T00:07:35;7.90;;;3.40;;
60488;SDS011;46331;49.252;8.904;2023-06-14T00:08:22;8.70;;;3.20;;
60488;SDS011;46331;49.252;8.904;2023-06-14T00:09:05;7.78;;;3.45;;
60488;SDS011;46331;49.252;8.904;2023-06-14T00:09:48;8.32;;;3.20;;
60488;SDS011;46331;49.252;8.904;2023-06-14T00:10:29;7.13;;;3.03;;
60488;SDS011;46331;49.252;8.904;2023-06-14T00:11:11;6.35;;;2.78;;
60488;SDS011;46331;49.252;8.904;2023-06-14T00:11:51;5.35;;;2.50;;
60488;SDS011;46331;49.252;8.904;2023-06-14T00:12:32;6.37;;;3.17;;
60488;SDS011;46331;49.252;8.904;2023-06-14T00:13:12;5.82;;;3.00;;
60488;SDS011;46331;49.252;8.904;2023-06-14T00:13:53;6.33;;;3.03;;
60488;SDS011;46331;49.252;8.904;2023-06-14T00:14:33;8.20;;;3.57;;
60488;SDS011;46331;49.252;8.904;2023-06-14T00:15:14;6.15;;;2.60;;
60488;SDS011;46331;49.252;8.904;2023-06-14T00:15:54;5.70;;;2.77;;
60488;SDS011;46331;49.252;8.904;2023-06-14T00:16:35;5.47;;;2.75;;
60488;SDS011;46331;49.252;8.904;2023-06-14T00:17:17;6.40;;;3.22;;
60488;SDS011;46331;49.252;8.904;2023-06-14T00:17:58;6.50;;;2.80;;
60488;SDS011;46331;49.252;8.904;2023-06-14T00:18:41;6.80;;;3.10;;
60488;SDS011;46331;49.252;8.904;2023-06-14T00:19:22;6.22;;;2.83;;
60488;SDS011;46331;49.252;8.904;2023-06-14T00:20:03;6.43;;;3.00;;
60488;SDS011;46331;49.252;8.904;2023-06-14T00:20:46;5.57;;;2.70;;
60488;SDS011;46331;49.252;8.904;2023-06-14T00:21:26;5.35;;;2.60;;
60488;SDS011;46331;49.252;8.904;2023-06-14T00:22:08;7.75;;;3.00;;
60488;SDS011;46331;49.252;8.904;2023-06-14T00:22:49;9.43;;;2.70;;
60488;SDS011;46331;49.252;8.904;2023-06-14T00:23:30;6.07;;;3.10;;
60488;SDS011;46331;49.252;8.904;2023-06-14T00:24:11;6.25;;;2.92;;
60488;SDS011;46331;49.252;8.904;2023-06-14T00:24:51;6.43;;;2.90;;
60488;SDS011;46331;49.252;8.904;2023-06-14T00:25:32;6.40;;;2.67;;
60488;SDS011;46331;49.252;8.904;2023-06-14T00:26:12;7.13;;;3.00;;
60488;SDS011;46331;49.252;8.904;2023-06-14T00:26:54;5.60;;;2.80;;
60488;SDS011;46331;49.252;8.904;2023-06-14T00:27:35;5.88;;;2.65;;
60488;SDS011;46331;49.252;8.904;2023-06-14T00:28:16;6.40;;;3.00;;
60488;SDS011;46331;49.252;8.904;2023-06-14T00:28:57;6.60;;;2.80;;
60488;SDS011;46331;49.252;8.904;2023-06-14T00:29:40;6.40;;;3.07;;
60488;SDS011;46331;49.252;8.904;2023-06-14T00:30:21;8.50;;;3.05;;
60488;SDS011;46331;49.252;8.904;2023-06-14T00:31:01;7.63;;;3.08;;
60488;SDS011;46331;49.252;8.904;2023-06-14T00:31:42;5.97;;;3.00;;
60488;SDS011;46331;49.252;8.904;2023-06-14T00:32:23;6.40;;;2.70;;
60488;SDS011;46331;49.252;8.904;2023-06-14T00:33:05;6.15;;;2.88;;
60488;SDS011;46331;49.252;8.904;2023-06-14T00:33:46;5.50;;;2.80;;
60488;SDS011;46331;49.252;8.904;2023-06-14T00:34:26;6.70;;;3.10;;
60488;SDS011;46331;49.252;8.904;2023-06-14T00:35:07;6.77;;;3.00;;
60488;SDS011;46331;49.252;8.904;2023-06-14T00:35:48;5.82;;;2.63;;
60488;SDS011;46331;49.252;8.904;2023-06-14T00:36:28;6.23;;;2.70;;
60488;SDS011;46331;49.252;8.904;2023-06-14T00:37:09;6.25;;;3.10;;
60488;SDS011;46331;49.252;8.904;2023-06-14T00:37:49;6.20;;;3.07;;
60488;SDS011;46331;49.252;8.904;2023-06-14T00:38:30;5.57;;;2.88;;
60488;SDS011;46331;49.252;8.904;2023-06-14T00:39:10;7.13;;;2.53;;
60488;SDS011;46331;49.252;8.904;2023-06-14T00:39:52;6.40;;;2.90;;
60488;SDS011;46331;49.252;8.904;2023-06-14T00:40:33;6.88;;;2.70;;
60488;SDS011;46331;49.252;8.904;2023-06-14T00:41:14;6.57;;;3.17;;
60488;SDS011;46331;49.252;8.904;2023-06-14T00:41:56;6.97;;;3.20;;
60488;SDS011;46331;49.252;8.904;2023-06-14T00:42:37;7.35;;;3.03;;
60488;SDS011;46331;49.252;8.904;2023-06-14T00:43:18;8.47;;;2.93;;
60488;SDS011;46331;49.252;8.904;2023-06-14T00:43:59;5.82;;;2.83;;
60488;SDS011;46331;49.252;8.904;2023-06-14T00:44:40;7.23;;;2.80;;
60488;SDS011;46331;49.252;8.904;2023-06-14T00:45:20;6.82;;;2.72;;
60488;SDS011;46331;49.252;8.904;2023-06-14T00:46:01;6.43;;;2.93;;
60488;SDS011;46331;49.252;8.904;2023-06-14T00:46:41;8.20;;;2.85;;
60488;SDS011;46331;49.252;8.904;2023-06-14T00:47:22;7.40;;;2.88;;
60488;SDS011;46331;49.252;8.904;2023-06-14T00:48:03;5.97;;;3.00;;
60488;SDS011;46331;49.252;8.904;2023-06-14T00:48:46;5.75;;;3.05;;
60488;SDS011;46331;49.252;8.904;2023-06-14T00:49:28;6.68;;;3.38;;
60488;SDS011;46331;49.252;8.904;2023-06-14T00:50:09;6.35;;;2.83;;
60488;SDS011;46331;49.252;8.904;2023-06-14T00:50:51;7.90;;;3.03;;
60488;SDS011;46331;49.252;8.904;2023-06-14T00:51:32;6.68;;;2.78;;
60488;SDS011;46331;49.252;8.904;2023-06-14T00:52:14;6.75;;;2.90;;
60488;SDS011;46331;49.252;8.904;2023-06-14T00:52:56;6.63;;;2.90;;
60488;SDS011;46331;49.252;8.904;2023-06-14T00:53:38;6.07;;;3.00;;
60488;SDS011;46331;49.252;8.904;2023-06-14T00:54:20;6.40;;;3.00;;
60488;SDS011;46331;49.252;8.904;2023-06-14T00:55:00;6.15;;;3.20;;
60488;SDS011;46331;49.252;8.904;2023-06-14T00:55:41;7.23;;;3.27;;
60488;SDS011;46331;49.252;8.904;2023-06-14T00:56:21;5.55;;;2.70;;
60488;SDS011;46331;49.252;8.904;2023-06-14T00:57:04;6.35;;;2.90;;
60488;SDS011;46331;49.252;8.904;2023-06-14T00:57:46;5.47;;;3.03;;
60488;SDS011;46331;49.252;8.904;2023-06-14T00:58:27;6.05;;;2.67;;
60488;SDS011;46331;49.252;8.904;2023-06-14T00:59:08;12.15;;;2.90;;
60488;SDS011;46331;49.252;8.904;2023-06-14T00:59:51;6.85;;;3.40;;
60488;SDS011;46331;49.252;8.904;2023-06-14T01:00:31;7.85;;;3.35;;
60488;SDS011;46331;49.252;8.904;2023-06-14T01:01:12;7.77;;;3.20;;
60488;SDS011;46331;49.252;8.904;2023-06-14T01:01:52;6.88;;;3.58;;
60488;SDS011;46331;49.252;8.904;2023-06-14T01:02:33;7.27;;;3.60;;
60488;SDS011;46331;49.252;8.904;2023-06-14T01:03:14;7.05;;;3.53;;
60488;SDS011;46331;49.252;8.904;2023-06-14T01:04:02;9.25;;;4.40;;
60488;SDS011;46331;49.252;8.904;2023-06-14T01:04:45;8.57;;;3.55;;
60488;SDS011;46331;49.252;8.904;2023-06-14T01:05:30;7.95;;;4.20;;
60488;SDS011;46331;49.252;8.904;2023-06-14T01:08:31;8.23;;;4.20;;
60488;SDS011;46331;49.252;8.904;2023-06-14T01:10:33;9.07;;;4.30;;
60488;SDS011;46331;49.252;8.904;2023-06-14T01:11:22;9.25;;;3.65;;
60488;SDS011;46331;49.252;8.904;2023-06-14T01:12:58;9.40;;;4.25;;
60488;SDS011;46331;49.252;8.904;2023-06-14T01:13:46;7.00;;;3.45;;
60488;SDS011;46331;49.252;8.904;2023-06-14T01:14:28;7.38;;;3.88;;
60488;SDS011;46331;49.252;8.904;2023-06-14T01:15:12;8.38;;;3.53;;
60488;SDS011;46331;49.252;8.904;2023-06-14T01:15:53;8.60;;;3.83;;
60488;SDS011;46331;49.252;8.904;2023-06-14T01:16:35;6.95;;;3.53;;
60488;SDS011;46331;49.252;8.904;2023-06-14T01:17:16;6.75;;;3.45;;
60488;SDS011;46331;49.252;8.904;2023-06-14T01:17:58;7.07;;;3.45;;
60488;SDS011;46331;49.252;8.904;2023-06-14T01:18:43;9.45;;;3.47;;
60488;SDS011;46331;49.252;8.904;2023-06-14T01:19:28;7.13;;;3.67;;
60488;SDS011;46331;49.252;8.904;2023-06-14T01:20:12;8.18;;;3.38;;
60488;SDS011;46331;49.252;8.904;2023-06-14T01:20:55;6.80;;;3.70;;
60488;SDS011;46331;49.252;8.904;2023-06-14T01:21:38;7.00;;;3.35;;
60488;SDS011;46331;49.252;8.904;2023-06-14T01:22:22;7.10;;;3.35;;
60488;SDS011;46331;49.252;8.904;2023-06-14T01:23:03;7.38;;;3.70;;
60488;SDS011;46331;49.252;8.904;2023-06-14T01:23:44;6.85;;;3.20;;
60488;SDS011;46331;49.252;8.904;2023-06-14T01:24:25;6.00;;;3.30;;
60488;SDS011;46331;49.252;8.904;2023-06-14T01:25:12;7.38;;;3.63;;
60488;SDS011;46331;49.252;8.904;2023-06-14T01:25:52;9.70;;;3.60;;
60488;SDS011;46331;49.252;8.904;2023-06-14T01:26:33;6.75;;;3.22;;
60488;SDS011;46331;49.252;8.904;2023-06-14T01:27:14;7.60;;;3.60;;
60488;SDS011;46331;49.252;8.904;2023-06-14T01:27:57;7.78;;;3.10;;
60488;SDS011;46331;49.252;8.904;2023-06-14T01:28:40;7.47;;;3.38;;
60488;SDS011;46331;49.252;8.904;2023-06-14T01:29:22;8.23;;;3.20;;
60488;SDS011;46331;49.252;8.904;2023-06-14T01:30:06;6.93;;;3.05;;
60488;SDS011;46331;49.252;8.904;2023-06-14T01:30:49;28.35;;;4.90;;
60488;SDS011;46331;49.252;8.904;2023-06-14T01:31:33;6.88;;;3.45;;
60488;SDS011;46331;49.252;8.904;2023-06-14T01:32:21;6.55;;;3.35;;
60488;SDS011;46331;49.252;8.904;2023-06-14T01:33:04;7.23;;;3.10;;
60488;SDS011;46331;49.252;8.904;2023-06-14T01:33:45;7.03;;;3.22;;
60488;SDS011;46331;49.252;8.904;2023-06-14T01:34:26;9.90;;;3.30;;
60488;SDS011;46331;49.252;8.904;2023-06-14T01:35:07;7.47;;;3.28;;
60488;SDS011;46331;49.252;8.904;2023-06-14T01:35:49;6.53;;;3.70;;
60488;SDS011;46331;49.252;8.904;2023-06-14T01:36:31;7.32;;;3.30;;
60488;SDS011;46331;49.252;8.904;2023-06-14T01:37:11;7.93;;;3.30;;
60488;SDS011;46331;49.252;8.904;2023-06-14T01:37:53;6.43;;;3.40;;
60488;SDS011;46331;49.252;8.904;2023-06-14T01:38:34;7.32;;;3.20;;
60488;SDS011;46331;49.252;8.904;2023-06-14T01:39:16;11.20;;;3.60;;
60488;SDS011;46331;49.252;8.904;2023-06-14T01:39:58;6.03;;;3.20;;
60488;SDS011;46331;49.252;8.904;2023-06-14T01:40:39;7.00;;;3.10;;
60488;SDS011;46331;49.252;8.904;2023-06-14T01:41:22;6.18;;;2.92;;
60488;SDS011;46331;49.252;8.904;2023-06-14T01:42:06;7.85;;;3.38;;
60488;SDS011;46331;49.252;8.904;2023-06-14T01:42:49;9.25;;;3.20;;
60488;SDS011;46331;49.252;8.904;2023-06-14T01:43:31;6.63;;;2.78;;
60488;SDS011;46331;49.252;8.904;2023-06-14T01:44:12;7.30;;;3.47;;
60488;SDS011;46331;49.252;8.904;2023-06-14T01:44:53;6.80;;;3.35;;
60488;SDS011;46331;49.252;8.904;2023-06-14T01:45:35;7.97;;;3.28;;
60488;SDS011;46331;49.252;8.904;2023-06-14T01:46:17;6.55;;;2.90;;
60488;SDS011;46331;49.252;8.904;2023-06-14T01:46:57;6.67;;;2.80;;
60488;SDS011;46331;49.252;8.904;2023-06-14T01:47:38;7.15;;;3.58;;
60488;SDS011;46331;49.252;8.904;2023-06-14T01:48:20;6.85;;;3.03;;
60488;SDS011;46331;49.252;8.904;2023-06-14T01:49:02;6.20;;;3.28;;
60488;SDS011;46331;49.252;8.904;2023-06-14T01:49:42;6.97;;;3.20;;
60488;SDS011;46331;49.252;8.904;2023-06-14T01:50:23;6.33;;;2.93;;
60488;SDS011;46331;49.252;8.904;2023-06-14T01:51:04;6.53;;;3.08;;
60488;SDS011;46331;49.252;8.904;2023-06-14T01:51:44;6.10;;;3.20;;
60488;SDS011;46331;49.252;8.904;2023-06-14T01:52:25;7.32;;;3.15;;
60488;SDS011;46331;49.252;8.904;2023-06-14T01:53:07;6.57;;;2.83;;
60488;SDS011;46331;49.252;8.904;2023-06-14T01:53:51;6.60;;;3.20;;
60488;SDS011;46331;49.252;8.904;2023-06-14T01:54:31;7.65;;;3.67;;
60488;SDS011;46331;49.252;8.904;2023-06-14T01:55:12;8.17;;;3.40;;
60488;SDS011;46331;49.252;8.904;2023-06-14T01:55:53;6.95;;;3.17;;
60488;SDS011;46331;49.252;8.904;2023-06-14T01:56:34;6.35;;;3.20;;
60488;SDS011;46331;49.252;8.904;2023-06-14T01:57:15;9.90;;;3.27;;
60488;SDS011;46331;49.252;8.904;2023-06-14T01:57:56;6.22;;;2.85;;
60488;SDS011;46331;49.252;8.904;2023-06-14T01:58:36;7.30;;;3.28;;
60488;SDS011;46331;49.252;8.904;2023-06-14T01:59:17;8.43;;;3.35;;
60488;SDS011;46331;49.252;8.904;2023-06-14T01:59:58;7.33;;;3.27;;
60488;SDS011;46331;49.252;8.904;2023-06-14T02:00:39;7.05;;;3.20;;
60488;SDS011;46331;49.252;8.904;2023-06-14T02:01:21;7.75;;;3.17;;
60488;SDS011;46331;49.252;8.904;2023-06-14T02:02:02;7.65;;;3.40;;
60488;SDS011;46331;49.252;8.904;2023-06-14T02:02:46;7.70;;;3.35;;
60488;SDS011;46331;49.252;8.904;2023-06-14T02:03:27;6.85;;;3.42;;
60488;SDS011;46331;49.252;8.904;2023-06-14T02:04:07;6.20;;;3.10;;
60488;SDS011;46331;49.252;8.904;2023-06-14T02:04:48;6.07;;;3.28;;
60488;SDS011;46331;49.252;8.904;2023-06-14T02:05:29;7.90;;;3.40;;
60488;SDS011;46331;49.252;8.904;2023-06-14T02:06:10;8.65;;;3.60;;
60488;SDS011;46331;49.252;8.904;2023-06-14T02:06:51;9.43;;;3.22;;
60488;SDS011;46331;49.252;8.904;2023-06-14T02:07:32;6.97;;;3.10;;
60488;SDS011;46331;49.252;8.904;2023-06-14T02:08:13;7.90;;;3.83;;
60488;SDS011;46331;49.252;8.904;2023-06-14T02:08:54;7.55;;;3.55;;
60488;SDS011;46331;49.252;8.904;2023-06-14T02:09:34;7.65;;;3.60;;
60488;SDS011;46331;49.252;8.904;2023-06-14T02:10:15;8.40;;;3.40;;
60488;SDS011;46331;49.252;8.904;2023-06-14T02:11:00;8.45;;;3.63;;
60488;SDS011;46331;49.252;8.904;2023-06-14T02:11:41;7.65;;;3.83;;
60488;SDS011;46331;49.252;8.904;2023-06-14T02:12:21;6.47;;;3.50;;
60488;SDS011;46331;49.252;8.904;2023-06-14T02:13:02;7.57;;;3.30;;
60488;SDS011;46331;49.252;8.904;2023-06-14T02:13:43;10.02;;;3.85;;
60488;SDS011;46331;49.252;8.904;2023-06-14T02:14:25;6.43;;;2.97;;
60488;SDS011;46331;49.252;8.904;2023-06-14T02:15:06;8.55;;;3.63;;
60488;SDS011;46331;49.252;8.904;2023-06-14T02:15:47;6.57;;;3.40;;
60488;SDS011;46331;49.252;8.904;2023-06-14T02:16:31;7.22;;;3.10;;
60488;SDS011;46331;49.252;8.904;2023-06-14T02:17:16;8.45;;;3.45;;
60488;SDS011;46331;49.252;8.904;2023-06-14T02:17:57;7.78;;;3.38;;
60488;SDS011;46331;49.252;8.904;2023-06-14T02:18:38;7.30;;;3.63;;
60488;SDS011;46331;49.252;8.904;2023-06-14T02:19:19;6.40;;;3.38;;
60488;SDS011;46331;49.252;8.904;2023-06-14T02:20:00;8.10;;;3.60;;
60488;SDS011;46331;49.252;8.904;2023-06-14T02:20:45;8.48;;;3.53;;
60488;SDS011;46331;49.252;8.904;2023-06-14T02:21:25;7.23;;;3.63;;
60488;SDS011;46331;49.252;8.904;2023-06-14T02:22:06;7.68;;;3.88;;
60488;SDS011;46331;49.252;8.904;2023-06-14T02:22:48;7.32;;;3.47;;
60488;SDS011;46331;49.252;8.904;2023-06-14T02:23:29;7.97;;;3.67;;
60488;SDS011;46331;49.252;8.904;2023-06-14T02:24:09;7.73;;;3.90;;
60488;SDS011;46331;49.252;8.904;2023-06-14T02:24:50;10.45;;;3.97;;
60488;SDS011;46331;49.252;8.904;2023-06-14T02:25:30;7.30;;;3.47;;
60488;SDS011;46331;49.252;8.904;2023-06-14T02:26:11;8.50;;;3.90;;
60488;SDS011;46331;49.252;8.904;2023-06-14T02:26:52;7.17;;;3.50;;
60488;SDS011;46331;49.252;8.904;2023-06-14T02:27:32;8.25;;;3.63;;
60488;SDS011;46331;49.252;8.904;2023-06-14T02:28:13;7.38;;;3.22;;
60488;SDS011;46331;49.252;8.904;2023-06-14T02:28:54;8.03;;;3.63;;
60488;SDS011;46331;49.252;8.904;2023-06-14T02:29:34;8.70;;;4.55;;
60488;SDS011;46331;49.252;8.904;2023-06-14T02:30:17;8.35;;;4.07;;
60488;SDS011;46331;49.252;8.904;2023-06-14T02:30:58;7.93;;;3.93;;
60488;SDS011;46331;49.252;8.904;2023-06-14T02:31:39;6.95;;;3.60;;
60488;SDS011;46331;49.252;8.904;2023-06-14T02:32:20;7.70;;;3.63;;
60488;SDS011;46331;49.252;8.904;2023-06-14T02:33:01;7.47;;;3.83;;
60488;SDS011;46331;49.252;8.904;2023-06-14T02:33:42;7.07;;;3.70;;
60488;SDS011;46331;49.252;8.904;2023-06-14T02:34:22;7.50;;;3.90;;
60488;SDS011;46331;49.252;8.904;2023-06-14T02:35:03;11.45;;;4.28;;
60488;SDS011;46331;49.252;8.904;2023-06-14T02:35:45;7.17;;;3.87;;
60488;SDS011;46331;49.252;8.904;2023-06-14T02:36:26;9.73;;;3.97;;
60488;SDS011;46331;49.252;8.904;2023-06-14T02:37:07;8.73;;;3.90;;
60488;SDS011;46331;49.252;8.904;2023-06-14T02:37:48;8.10;;;4.13;;
60488;SDS011;46331;49.252;8.904;2023-06-14T02:38:28;8.63;;;3.80;;
60488;SDS011;46331;49.252;8.904;2023-06-14T02:39:09;8.57;;;3.65;;
60488;SDS011;46331;49.252;8.904;2023-06-14T02:39:50;8.63;;;3.78;;
60488;SDS011;46331;49.252;8.904;2023-06-14T02:40:31;9.10;;;3.70;;
60488;SDS011;46331;49.252;8.904;2023-06-14T02:41:11;7.90;;;3.53;;
60488;SDS011;46331;49.252;8.904;2023-06-14T02:41:52;8.90;;;3.38;;
60488;SDS011;46331;49.252;8.904;2023-06-14T02:42:32;7.43;;;3.30;;
60488;SDS011;46331;49.252;8.904;2023-06-14T02:43:13;7.93;;;3.83;;
60488;SDS011;46331;49.252;8.904;2023-06-14T02:43:53;7.97;;;3.40;;
60488;SDS011;46331;49.252;8.904;2023-06-14T02:44:34;7.27;;;3.80;;
60488;SDS011;46331;49.252;8.904;2023-06-14T02:45:15;7.43;;;3.45;;
60488;SDS011;46331;49.252;8.904;2023-06-14T02:45:55;7.30;;;3.30;;
60488;SDS011;46331;49.252;8.904;2023-06-14T02:46:36;7.40;;;3.50;;
60488;SDS011;46331;49.252;8.904;2023-06-14T02:47:19;7.95;;;4.22;;
60488;SDS011;46331;49.252;8.904;2023-06-14T02:48:00;6.60;;;3.22;;
60488;SDS011;46331;49.252;8.904;2023-06-14T02:48:40;7.50;;;3.63;;
60488;SDS011;46331;49.252;8.904;2023-06-14T02:49:23;7.25;;;3.78;;
60488;SDS011;46331;49.252;8.904;2023-06-14T02:50:04;8.05;;;3.50;;
60488;SDS011;46331;49.252;8.904;2023-06-14T02:50:45;8.20;;;3.83;;
60488;SDS011;46331;49.252;8.904;2023-06-14T02:51:26;7.50;;;3.78;;
60488;SDS011;46331;49.252;8.904;2023-06-14T02:52:06;6.33;;;3.20;;
60488;SDS011;46331;49.252;8.904;2023-06-14T02:52:49;6.30;;;3.50;;
60488;SDS011;46331;49.252;8.904;2023-06-14T02:53:29;9.13;;;3.70;;
60488;SDS011;46331;49.252;8.904;2023-06-14T02:54:10;7.60;;;3.43;;
60488;SDS011;46331;49.252;8.904;2023-06-14T02:54:52;12.13;;;3.85;;
60488;SDS011;46331;49.252;8.904;2023-06-14T02:55:34;7.30;;;3.78;;
60488;SDS011;46331;49.252;8.904;2023-06-14T02:56:19;8.75;;;3.90;;
60488;SDS011;46331;49.252;8.904;2023-06-14T02:57:01;9.80;;;3.60;;
60488;SDS011;46331;49.252;8.904;2023-06-14T02:57:41;9.77;;;3.78;;
60488;SDS011;46331;49.252;8.904;2023-06-14T02:58:24;7.85;;;3.78;;
60488;SDS011;46331;49.252;8.904;2023-06-14T02:59:05;7.45;;;3.60;;
60488;SDS011;46331;49.252;8.904;2023-06-14T02:59:46;8.47;;;4.10;;
60488;SDS011;46331;49.252;8.904;2023-06-14T03:00:27;7.45;;;3.63;;
60488;SDS011;46331;49.252;8.904;2023-06-14T03:01:10;7.13;;;3.60;;
60488;SDS011;46331;49.252;8.904;2023-06-14T03:01:52;8.32;;;3.20;;
60488;SDS011;46331;49.252;8.904;2023-06-14T03:02:33;7.53;;;3.63;;
60488;SDS011;46331;49.252;8.904;2023-06-14T03:03:14;6.37;;;3.37;;
60488;SDS011;46331;49.252;8.904;2023-06-14T03:04:02;8.18;;;3.92;;
60488;SDS011;46331;49.252;8.904;2023-06-14T03:04:45;6.28;;;3.80;;
60488;SDS011;46331;49.252;8.904;2023-06-14T03:05:29;7.70;;;3.47;;
60488;SDS011;46331;49.252;8.904;2023-06-14T03:06:10;7.78;;;3.63;;
60488;SDS011;46331;49.252;8.904;2023-06-14T03:06:53;8.00;;;3.22;;
60488;SDS011;46331;49.252;8.904;2023-06-14T03:07:36;7.17;;;3.60;;
60488;SDS011;46331;49.252;8.904;2023-06-14T03:08:21;7.28;;;3.30;;
60488;SDS011;46331;49.252;8.904;2023-06-14T03:09:07;6.95;;;3.10;;
60488;SDS011;46331;49.252;8.904;2023-06-14T03:09:51;6.90;;;3.55;;
60488;SDS011;46331;49.252;8.904;2023-06-14T03:10:32;7.30;;;3.22;;
60488;SDS011;46331;49.252;8.904;2023-06-14T03:11:13;6.85;;;3.65;;
60488;SDS011;46331;49.252;8.904;2023-06-14T03:11:54;10.15;;;3.65;;
60488;SDS011;46331;49.252;8.904;2023-06-14T03:12:35;6.83;;;3.70;;
60488;SDS011;46331;49.252;8.904;2023-06-14T03:13:16;11.30;;;3.80;;
60488;SDS011;46331;49.252;8.904;2023-06-14T03:13:58;10.13;;;3.67;;
60488;SDS011;46331;49.252;8.904;2023-06-14T03:14:40;7.72;;;3.40;;
60488;SDS011;46331;49.252;8.904;2023-06-14T03:15:22;7.18;;;3.30;;
60488;SDS011;46331;49.252;8.904;2023-06-14T03:16:05;8.73;;;3.93;;
60488;SDS011;46331;49.252;8.904;2023-06-14T03:16:49;8.13;;;3.90;;
60488;SDS011;46331;49.252;8.904;2023-06-14T03:17:30;7.50;;;3.63;;
60488;SDS011;46331;49.252;8.904;2023-06-14T03:18:14;6.60;;;3.72;;
60488;SDS011;46331;49.252;8.904;2023-06-14T03:18:55;7.47;;;3.28;;
60488;SDS011;46331;49.252;8.904;2023-06-14T03:19:39;8.98;;;3.50;;
60488;SDS011;46331;49.252;8.904;2023-06-14T03:20:21;8.90;;;3.50;;
60488;SDS011;46331;49.252;8.904;2023-06-14T03:21:02;9.30;;;3.30;;
60488;SDS011;46331;49.252;8.904;2023-06-14T03:21:44;6.78;;;3.55;;
60488;SDS011;46331;49.252;8.904;2023-06-14T03:22:25;6.80;;;3.60;;
60488;SDS011;46331;49.252;8.904;2023-06-14T03:23:06;6.07;;;3.40;;
60488;SDS011;46331;49.252;8.904;2023-06-14T03:23:51;6.63;;;3.03;;
60488;SDS011;46331;49.252;8.904;2023-06-14T03:24:33;7.28;;;3.67;;
60488;SDS011;46331;49.252;8.904;2023-06-14T03:25:16;7.50;;;3.30;;
60488;SDS011;46331;49.252;8.904;2023-06-14T03:26:01;6.43;;;3.70;;
60488;SDS011;46331;49.252;8.904;2023-06-14T03:26:41;8.87;;;3.50;;
60488;SDS011;46331;49.252;8.904;2023-06-14T03:27:22;7.35;;;3.45;;
60488;SDS011;46331;49.252;8.904;2023-06-14T03:28:03;7.17;;;3.73;;
60488;SDS011;46331;49.252;8.904;2023-06-14T03:28:44;9.68;;;3.50;;
60488;SDS011;46331;49.252;8.904;2023-06-14T03:29:26;9.18;;;3.58;;
60488;SDS011;46331;49.252;8.904;2023-06-14T03:30:07;7.72;;;3.70;;
60488;SDS011;46331;49.252;8.904;2023-06-14T03:30:48;7.60;;;3.42;;
60488;SDS011;46331;49.252;8.904;2023-06-14T03:31:29;13.85;;;3.75;;
60488;SDS011;46331;49.252;8.904;2023-06-14T03:32:14;8.90;;;3.80;;
60488;SDS011;46331;49.252;8.904;2023-06-14T03:32:57;8.23;;;3.95;;
60488;SDS011;46331;49.252;8.904;2023-06-14T03:33:42;7.07;;;3.50;;
60488;SDS011;46331;49.252;8.904;2023-06-14T03:34:22;7.50;;;3.65;;
60488;SDS011;46331;49.252;8.904;2023-06-14T03:35:04;6.57;;;3.55;;
60488;SDS011;46331;49.252;8.904;2023-06-14T03:35:45;8.50;;;3.40;;
60488;SDS011;46331;49.252;8.904;2023-06-14T03:36:25;8.07;;;3.93;;
60488;SDS011;46331;49.252;8.904;2023-06-14T03:37:06;7.07;;;3.47;;
60488;SDS011;46331;49.252;8.904;2023-06-14T03:37:47;8.35;;;3.63;;
60488;SDS011;46331;49.252;8.904;2023-06-14T03:38:28;9.63;;;3.80;;
60488;SDS011;46331;49.252;8.904;2023-06-14T03:39:10;7.45;;;3.72;;
60488;SDS011;46331;49.252;8.904;2023-06-14T03:39:50;7.30;;;3.58;;
60488;SDS011;46331;49.252;8.904;2023-06-14T03:40:35;8.52;;;3.65;;
60488;SDS011;46331;49.252;8.904;2023-06-14T03:41:17;8.07;;;3.47;;
60488;SDS011;46331;49.252;8.904;2023-06-14T03:41:58;6.43;;;3.47;;
60488;SDS011;46331;49.252;8.904;2023-06-14T03:42:39;6.95;;;3.53;;
60488;SDS011;46331;49.252;8.904;2023-06-14T03:43:20;8.97;;;3.50;;
60488;SDS011;46331;49.252;8.904;2023-06-14T03:44:00;8.48;;;4.20;;
60488;SDS011;46331;49.252;8.904;2023-06-14T03:44:41;6.80;;;3.40;;
60488;SDS011;46331;49.252;8.904;2023-06-14T03:45:22;9.48;;;3.47;;
60488;SDS011;46331;49.252;8.904;2023-06-14T03:46:02;8.37;;;3.50;;
60488;SDS011;46331;49.252;8.904;2023-06-14T03:46:45;8.23;;;3.47;;
60488;SDS011;46331;49.252;8.904;2023-06-14T03:47:26;6.35;;;3.50;;
60488;SDS011;46331;49.252;8.904;2023-06-14T03:48:09;7.22;;;3.60;;
60488;SDS011;46331;49.252;8.904;2023-06-14T03:48:50;9.82;;;4.10;;
60488;SDS011;46331;49.252;8.904;2023-06-14T03:49:31;6.47;;;3.43;;
60488;SDS011;46331;49.252;8.904;2023-06-14T03:50:12;9.30;;;4.10;;
60488;SDS011;46331;49.252;8.904;2023-06-14T03:50:53;8.10;;;3.85;;
60488;SDS011;46331;49.252;8.904;2023-06-14T03:51:35;9.80;;;3.70;;
60488;SDS011;46331;49.252;8.904;2023-06-14T03:52:16;7.10;;;3.67;;
60488;SDS011;46331;49.252;8.904;2023-06-14T03:52:59;8.45;;;3.50;;
60488;SDS011;46331;49.252;8.904;2023-06-14T03:53:41;8.00;;;3.63;;
60488;SDS011;46331;49.252;8.904;2023-06-14T03:54:22;8.55;;;3.80;;
60488;SDS011;46331;49.252;8.904;2023-06-14T03:55:05;7.78;;;3.58;;
60488;SDS011;46331;49.252;8.904;2023-06-14T03:55:47;7.25;;;3.35;;
60488;SDS011;46331;49.252;8.904;2023-06-14T03:56:29;6.70;;;3.63;;
60488;SDS011;46331;49.252;8.904;2023-06-14T03:57:09;8.53;;;3.80;;
60488;SDS011;46331;49.252;8.904;2023-06-14T03:57:51;9.02;;;3.95;;
60488;SDS011;46331;49.252;8.904;2023-06-14T03:58:32;8.98;;;3.90;;
60488;SDS011;46331;49.252;8.904;2023-06-14T03:59:13;9.15;;;4.35;;
60488;SDS011;46331;49.252;8.904;2023-06-14T03:59:54;9.38;;;3.97;;
60488;SDS011;46331;49.252;8.904;2023-06-14T04:00:34;7.63;;;3.57;;
60488;SDS011;46331;49.252;8.904;2023-06-14T04:01:17;7.25;;;3.92;;
60488;SDS011;46331;49.252;8.904;2023-06-14T04:01:57;7.97;;;3.92;;
60488;SDS011;46331;49.252;8.904;2023-06-14T04:02:40;14.35;;;4.45;;
60488;SDS011;46331;49.252;8.904;2023-06-14T04:03:23;9.73;;;5.10;;
60488;SDS011;46331;49.252;8.904;2023-06-14T04:04:06;11.52;;;5.18;;
60488;SDS011;46331;49.252;8.904;2023-06-14T04:04:46;14.40;;;6.27;;
60488;SDS011;46331;49.252;8.904;2023-06-14T04:05:28;12.68;;;6.78;;
60488;SDS011;46331;49.252;8.904;2023-06-14T04:06:11;11.48;;;5.70;;
60488;SDS011;46331;49.252;8.904;2023-06-14T04:06:52;11.60;;;5.70;;
60488;SDS011;46331;49.252;8.904;2023-06-14T04:07:32;16.70;;;7.72;;
60488;SDS011;46331;49.252;8.904;2023-06-14T04:08:19;11.93;;;6.82;;
60488;SDS011;46331;49.252;8.904;2023-06-14T04:09:02;10.67;;;5.10;;
60488;SDS011;46331;49.252;8.904;2023-06-14T04:09:43;8.75;;;4.80;;
60488;SDS011;46331;49.252;8.904;2023-06-14T04:10:23;11.50;;;5.37;;
60488;SDS011;46331;49.252;8.904;2023-06-14T04:11:04;13.27;;;5.65;;
60488;SDS011;46331;49.252;8.904;2023-06-14T04:11:44;11.10;;;5.10;;
60488;SDS011;46331;49.252;8.904;2023-06-14T04:12:25;9.18;;;5.78;;
60488;SDS011;46331;49.252;8.904;2023-06-14T04:13:06;17.17;;;7.55;;
60488;SDS011;46331;49.252;8.904;2023-06-14T04:13:47;11.73;;;6.33;;
60488;SDS011;46331;49.252;8.904;2023-06-14T04:14:28;11.20;;;7.05;;
60488;SDS011;46331;49.252;8.904;2023-06-14T04:15:09;13.47;;;6.60;;